Airfield :
LOGIN :

Register | Disclaimer

   EN    FR    IT 

 










Legend :    VFR   Marginal VFR   IFR   Intensive IFR   Very Intensive IFR
Visi :
Ceiling :
>= 8 km
>= 3000ft
5 to 8 km
1000 to 3000 ft
1500m to 5 km
500 to 1000 ft
800 to 1500m
200 to 500 ft
< 800m
< 200 ft
Symbols :   Thunderstorms  Fog  Heavy snow  Heavy precipitations  Wind > 20 kt
SIGMETs :     Misc.  Thunderstorms  Icing  Turbulence  Mountain Waves  Volcanic Ashes






- Airport Elevation : 424 ft
- IATA code : QGY


LHPR - Györ Per

CURRENT METAR :
  • 220515Z AUTO 14001KT 0800 R30/0900N FZFG VV002 M02/M03 Q1034

EXPIRED METARs :
  • 220445Z AUTO VRB01KT 0550 R30/0700N FZFG OVC004 M02/M03 Q1034
  • 220415Z AUTO 00000KT 0700 R30/0800D FZFG VV002 M02/M03 Q1035
  • 220345Z AUTO 12001KT 0750 R30/0900D FZFG VV002 M03/M03 Q1035
  • 220315Z AUTO 13001KT 0700 R30/0900U FZFG VV002 M03/M03 Q1035
  • 220245Z AUTO VRB01KT 0650 R30/0750N FZFG VV002 M03/M03 Q1036
  • 220215Z AUTO 13001KT 0750 R30/1000N FZFG VV002 M02/M03 Q1036

TAF TAF LHPR
Valid from the 22 at 06:00 until the 22 at 15:00 UTC


220515Z 2206/2215 VRB03KT 0800 FZFG OVC005
TEMPO 2206/2208 0300 FZFG -FZDZ OVC002
BECMG 2208/2211 30009KT 9999 NSW SCT010 BKN020
BECMG 2212/2215 31014G24KT CAVOK



MET'MAP, your aeronautical weather chart ! - Copyright ORBIFLY December 2007 - Disclaimer

ORBIFLY MET'MAP TEAM :

Programming & Development : Alexandra Zaïnal
Concept & original design : Baudouin d'Aumeries
Assistance for programming : Marc-Olivier Méhu
Technical & hardware support : Manuel Goepfert

Contact : metmap@orbifly.com




SOURCES & CREDITS :

   NOAA